sensor_id;sensor_type;location;lat;lon;timestamp;P1;durP1;ratioP1;P2;durP2;ratioP2
18407;SDS011;9330;52.210;21.174;2024-01-07T00:02:18;22.17;;;12.90;;
18407;SDS011;9330;52.210;21.174;2024-01-07T00:04:46;21.93;;;12.20;;
18407;SDS011;9330;52.210;21.174;2024-01-07T00:07:13;23.20;;;12.83;;
18407;SDS011;9330;52.210;21.174;2024-01-07T00:09:40;23.03;;;13.47;;
18407;SDS011;9330;52.210;21.174;2024-01-07T00:12:07;22.97;;;13.60;;
18407;SDS011;9330;52.210;21.174;2024-01-07T00:14:34;20.67;;;12.47;;
18407;SDS011;9330;52.210;21.174;2024-01-07T00:17:01;22.40;;;13.10;;
18407;SDS011;9330;52.210;21.174;2024-01-07T00:19:28;20.77;;;12.97;;
18407;SDS011;9330;52.210;21.174;2024-01-07T00:21:57;22.53;;;12.87;;
18407;SDS011;9330;52.210;21.174;2024-01-07T00:24:24;22.40;;;13.50;;
18407;SDS011;9330;52.210;21.174;2024-01-07T00:26:53;21.10;;;12.37;;
18407;SDS011;9330;52.210;21.174;2024-01-07T00:29:20;21.40;;;12.60;;
18407;SDS011;9330;52.210;21.174;2024-01-07T00:31:47;26.00;;;14.20;;
18407;SDS011;9330;52.210;21.174;2024-01-07T00:34:14;18.80;;;11.30;;
18407;SDS011;9330;52.210;21.174;2024-01-07T00:36:40;23.10;;;13.63;;
18407;SDS011;9330;52.210;21.174;2024-01-07T00:39:09;23.80;;;13.73;;
18407;SDS011;9330;52.210;21.174;2024-01-07T00:41:35;25.63;;;14.47;;
18407;SDS011;9330;52.210;21.174;2024-01-07T00:44:02;22.27;;;13.50;;
18407;SDS011;9330;52.210;21.174;2024-01-07T00:46:29;21.33;;;13.67;;
18407;SDS011;9330;52.210;21.174;2024-01-07T00:48:56;22.10;;;14.07;;
18407;SDS011;9330;52.210;21.174;2024-01-07T00:51:23;23.00;;;13.87;;
18407;SDS011;9330;52.210;21.174;2024-01-07T00:53:49;21.53;;;12.50;;
18407;SDS011;9330;52.210;21.174;2024-01-07T00:56:18;24.23;;;13.23;;
18407;SDS011;9330;52.210;21.174;2024-01-07T00:58:44;25.50;;;14.70;;
18407;SDS011;9330;52.210;21.174;2024-01-07T01:01:11;23.30;;;13.83;;
18407;SDS011;9330;52.210;21.174;2024-01-07T01:03:38;24.80;;;13.10;;
18407;SDS011;9330;52.210;21.174;2024-01-07T01:06:05;23.10;;;12.77;;
18407;SDS011;9330;52.210;21.174;2024-01-07T01:08:32;27.77;;;13.60;;
18407;SDS011;9330;52.210;21.174;2024-01-07T01:10:58;21.10;;;12.77;;
18407;SDS011;9330;52.210;21.174;2024-01-07T01:13:27;24.70;;;14.20;;
18407;SDS011;9330;52.210;21.174;2024-01-07T01:15:53;21.10;;;13.23;;
18407;SDS011;9330;52.210;21.174;2024-01-07T01:18:21;21.73;;;13.17;;
18407;SDS011;9330;52.210;21.174;2024-01-07T01:20:48;24.07;;;14.07;;
18407;SDS011;9330;52.210;21.174;2024-01-07T01:23:14;20.97;;;13.40;;
18407;SDS011;9330;52.210;21.174;2024-01-07T01:25:41;23.23;;;12.70;;
18407;SDS011;9330;52.210;21.174;2024-01-07T01:28:09;23.13;;;13.13;;
18407;SDS011;9330;52.210;21.174;2024-01-07T01:30:37;23.27;;;12.73;;
18407;SDS011;9330;52.210;21.174;2024-01-07T01:33:04;26.37;;;15.63;;
18407;SDS011;9330;52.210;21.174;2024-01-07T01:35:31;26.43;;;16.23;;
18407;SDS011;9330;52.210;21.174;2024-01-07T01:37:58;24.53;;;14.43;;
18407;SDS011;9330;52.210;21.174;2024-01-07T01:40:24;25.97;;;15.53;;
18407;SDS011;9330;52.210;21.174;2024-01-07T01:42:51;25.53;;;13.30;;
18407;SDS011;9330;52.210;21.174;2024-01-07T01:45:18;22.53;;;13.23;;
18407;SDS011;9330;52.210;21.174;2024-01-07T01:47:46;22.57;;;13.57;;
18407;SDS011;9330;52.210;21.174;2024-01-07T01:50:14;22.03;;;13.67;;
18407;SDS011;9330;52.210;21.174;2024-01-07T01:52:42;23.93;;;15.27;;
18407;SDS011;9330;52.210;21.174;2024-01-07T01:55:10;20.83;;;12.73;;
18407;SDS011;9330;52.210;21.174;2024-01-07T01:57:37;22.57;;;13.20;;
18407;SDS011;9330;52.210;21.174;2024-01-07T02:00:06;21.00;;;11.40;;
18407;SDS011;9330;52.210;21.174;2024-01-07T02:02:34;17.97;;;11.27;;
18407;SDS011;9330;52.210;21.174;2024-01-07T02:05:02;20.63;;;12.63;;
18407;SDS011;9330;52.210;21.174;2024-01-07T02:07:30;21.63;;;13.23;;
18407;SDS011;9330;52.210;21.174;2024-01-07T02:09:57;25.37;;;14.23;;
18407;SDS011;9330;52.210;21.174;2024-01-07T02:12:25;24.67;;;13.87;;
18407;SDS011;9330;52.210;21.174;2024-01-07T02:14:52;22.03;;;13.23;;
18407;SDS011;9330;52.210;21.174;2024-01-07T02:17:18;19.40;;;11.63;;
18407;SDS011;9330;52.210;21.174;2024-01-07T02:19:46;17.83;;;10.90;;
18407;SDS011;9330;52.210;21.174;2024-01-07T02:22:14;18.63;;;10.80;;
18407;SDS011;9330;52.210;21.174;2024-01-07T02:24:42;18.13;;;11.17;;
18407;SDS011;9330;52.210;21.174;2024-01-07T02:27:09;20.30;;;11.45;;
18407;SDS011;9330;52.210;21.174;2024-01-07T02:29:36;18.40;;;11.17;;
18407;SDS011;9330;52.210;21.174;2024-01-07T02:32:03;17.57;;;10.33;;
18407;SDS011;9330;52.210;21.174;2024-01-07T02:34:30;15.87;;;10.40;;
18407;SDS011;9330;52.210;21.174;2024-01-07T02:36:57;16.23;;;10.37;;
18407;SDS011;9330;52.210;21.174;2024-01-07T02:39:24;17.80;;;10.77;;
18407;SDS011;9330;52.210;21.174;2024-01-07T02:41:52;16.77;;;10.10;;
18407;SDS011;9330;52.210;21.174;2024-01-07T02:44:19;14.23;;;9.40;;
18407;SDS011;9330;52.210;21.174;2024-01-07T02:46:45;15.33;;;9.47;;
18407;SDS011;9330;52.210;21.174;2024-01-07T02:49:12;17.13;;;9.83;;
18407;SDS011;9330;52.210;21.174;2024-01-07T02:51:39;15.27;;;9.17;;
18407;SDS011;9330;52.210;21.174;2024-01-07T02:54:06;13.33;;;8.47;;
18407;SDS011;9330;52.210;21.174;2024-01-07T02:56:33;12.70;;;8.13;;
18407;SDS011;9330;52.210;21.174;2024-01-07T02:59:01;14.63;;;8.93;;
18407;SDS011;9330;52.210;21.174;2024-01-07T03:01:28;15.37;;;9.20;;
18407;SDS011;9330;52.210;21.174;2024-01-07T03:03:54;14.53;;;8.33;;
18407;SDS011;9330;52.210;21.174;2024-01-07T03:06:21;12.03;;;8.33;;
18407;SDS011;9330;52.210;21.174;2024-01-07T03:08:48;13.37;;;8.77;;
18407;SDS011;9330;52.210;21.174;2024-01-07T03:11:15;12.23;;;8.00;;
18407;SDS011;9330;52.210;21.174;2024-01-07T03:13:42;14.37;;;8.73;;
18407;SDS011;9330;52.210;21.174;2024-01-07T03:16:19;16.40;;;9.43;;
18407;SDS011;9330;52.210;21.174;2024-01-07T03:18:46;14.57;;;8.90;;
18407;SDS011;9330;52.210;21.174;2024-01-07T03:21:16;14.00;;;9.47;;
18407;SDS011;9330;52.210;21.174;2024-01-07T03:23:44;12.27;;;8.60;;
18407;SDS011;9330;52.210;21.174;2024-01-07T03:26:11;13.67;;;8.40;;
18407;SDS011;9330;52.210;21.174;2024-01-07T03:28:38;12.50;;;8.43;;
18407;SDS011;9330;52.210;21.174;2024-01-07T03:31:05;12.73;;;8.20;;
18407;SDS011;9330;52.210;21.174;2024-01-07T03:33:35;15.17;;;9.33;;
18407;SDS011;9330;52.210;21.174;2024-01-07T03:36:05;12.77;;;8.27;;
18407;SDS011;9330;52.210;21.174;2024-01-07T03:38:33;17.70;;;9.83;;
18407;SDS011;9330;52.210;21.174;2024-01-07T03:41:00;14.53;;;8.80;;
18407;SDS011;9330;52.210;21.174;2024-01-07T03:43:27;13.70;;;8.60;;
18407;SDS011;9330;52.210;21.174;2024-01-07T03:45:54;15.10;;;9.33;;
18407;SDS011;9330;52.210;21.174;2024-01-07T03:48:21;14.13;;;8.87;;
18407;SDS011;9330;52.210;21.174;2024-01-07T03:50:49;15.97;;;9.70;;
18407;SDS011;9330;52.210;21.174;2024-01-07T03:53:16;15.00;;;9.30;;
18407;SDS011;9330;52.210;21.174;2024-01-07T03:55:43;14.47;;;8.43;;
18407;SDS011;9330;52.210;21.174;2024-01-07T03:58:09;14.00;;;9.27;;
18407;SDS011;9330;52.210;21.174;2024-01-07T04:00:36;19.30;;;11.77;;
18407;SDS011;9330;52.210;21.174;2024-01-07T04:03:03;14.17;;;9.30;;
18407;SDS011;9330;52.210;21.174;2024-01-07T04:05:30;15.13;;;9.00;;
18407;SDS011;9330;52.210;21.174;2024-01-07T04:07:59;20.20;;;11.43;;
18407;SDS011;9330;52.210;21.174;2024-01-07T04:10:26;13.90;;;8.67;;
18407;SDS011;9330;52.210;21.174;2024-01-07T04:12:53;12.53;;;8.80;;
18407;SDS011;9330;52.210;21.174;2024-01-07T04:15:20;13.97;;;8.63;;
18407;SDS011;9330;52.210;21.174;2024-01-07T04:17:47;15.90;;;9.77;;
18407;SDS011;9330;52.210;21.174;2024-01-07T04:20:14;14.87;;;9.23;;
18407;SDS011;9330;52.210;21.174;2024-01-07T04:22:41;12.47;;;8.50;;
18407;SDS011;9330;52.210;21.174;2024-01-07T04:25:09;13.87;;;9.13;;
18407;SDS011;9330;52.210;21.174;2024-01-07T04:27:36;15.73;;;9.30;;
18407;SDS011;9330;52.210;21.174;2024-01-07T04:30:03;12.27;;;8.40;;
18407;SDS011;9330;52.210;21.174;2024-01-07T04:32:31;12.63;;;8.07;;
18407;SDS011;9330;52.210;21.174;2024-01-07T04:34:58;14.63;;;9.93;;
18407;SDS011;9330;52.210;21.174;2024-01-07T04:37:25;12.90;;;8.53;;
18407;SDS011;9330;52.210;21.174;2024-01-07T04:39:52;15.83;;;9.97;;
18407;SDS011;9330;52.210;21.174;2024-01-07T04:42:20;14.03;;;9.07;;
18407;SDS011;9330;52.210;21.174;2024-01-07T04:44:47;13.70;;;8.17;;
18407;SDS011;9330;52.210;21.174;2024-01-07T04:47:24;15.73;;;9.73;;
18407;SDS011;9330;52.210;21.174;2024-01-07T04:49:51;13.30;;;8.63;;
18407;SDS011;9330;52.210;21.174;2024-01-07T04:52:19;14.83;;;8.53;;
18407;SDS011;9330;52.210;21.174;2024-01-07T04:54:45;13.43;;;8.97;;
18407;SDS011;9330;52.210;21.174;2024-01-07T04:57:12;12.87;;;8.60;;
18407;SDS011;9330;52.210;21.174;2024-01-07T04:59:41;12.80;;;8.90;;
18407;SDS011;9330;52.210;21.174;2024-01-07T05:02:08;15.97;;;9.13;;
18407;SDS011;9330;52.210;21.174;2024-01-07T05:04:35;13.20;;;8.73;;
18407;SDS011;9330;52.210;21.174;2024-01-07T05:07:02;13.60;;;8.80;;
18407;SDS011;9330;52.210;21.174;2024-01-07T05:09:29;11.73;;;8.30;;
18407;SDS011;9330;52.210;21.174;2024-01-07T05:11:57;14.20;;;9.20;;
18407;SDS011;9330;52.210;21.174;2024-01-07T05:14:23;13.50;;;8.37;;
18407;SDS011;9330;52.210;21.174;2024-01-07T05:16:52;12.57;;;7.87;;
18407;SDS011;9330;52.210;21.174;2024-01-07T05:19:19;13.40;;;8.50;;
18407;SDS011;9330;52.210;21.174;2024-01-07T05:21:46;14.37;;;9.00;;
18407;SDS011;9330;52.210;21.174;2024-01-07T05:24:13;13.07;;;8.80;;
18407;SDS011;9330;52.210;21.174;2024-01-07T05:26:40;15.80;;;9.20;;
18407;SDS011;9330;52.210;21.174;2024-01-07T05:29:08;12.73;;;8.43;;
18407;SDS011;9330;52.210;21.174;2024-01-07T05:31:35;14.53;;;9.00;;
18407;SDS011;9330;52.210;21.174;2024-01-07T05:34:03;12.57;;;8.33;;
18407;SDS011;9330;52.210;21.174;2024-01-07T05:36:30;14.97;;;8.97;;
18407;SDS011;9330;52.210;21.174;2024-01-07T05:38:57;14.47;;;9.17;;
18407;SDS011;9330;52.210;21.174;2024-01-07T05:41:23;13.23;;;7.90;;
18407;SDS011;9330;52.210;21.174;2024-01-07T05:43:50;15.60;;;9.07;;
18407;SDS011;9330;52.210;21.174;2024-01-07T05:46:17;13.40;;;8.67;;
18407;SDS011;9330;52.210;21.174;2024-01-07T05:48:44;11.80;;;8.30;;
18407;SDS011;9330;52.210;21.174;2024-01-07T05:51:14;12.07;;;8.70;;
18407;SDS011;9330;52.210;21.174;2024-01-07T05:53:41;13.07;;;8.40;;
18407;SDS011;9330;52.210;21.174;2024-01-07T05:56:08;13.10;;;8.47;;
18407;SDS011;9330;52.210;21.174;2024-01-07T05:58:35;14.33;;;8.20;;
18407;SDS011;9330;52.210;21.174;2024-01-07T06:01:02;14.83;;;9.57;;
18407;SDS011;9330;52.210;21.174;2024-01-07T06:03:28;12.77;;;8.63;;
18407;SDS011;9330;52.210;21.174;2024-01-07T06:05:55;14.53;;;8.87;;
18407;SDS011;9330;52.210;21.174;2024-01-07T06:10:52;13.43;;;9.00;;
18407;SDS011;9330;52.210;21.174;2024-01-07T06:13:19;15.00;;;9.63;;
18407;SDS011;9330;52.210;21.174;2024-01-07T06:15:46;14.30;;;9.23;;
18407;SDS011;9330;52.210;21.174;2024-01-07T06:18:13;14.03;;;8.70;;
18407;SDS011;9330;52.210;21.174;2024-01-07T06:20:40;11.90;;;8.00;;
18407;SDS011;9330;52.210;21.174;2024-01-07T06:23:07;14.80;;;9.03;;
18407;SDS011;9330;52.210;21.174;2024-01-07T06:25:35;13.27;;;9.40;;
18407;SDS011;9330;52.210;21.174;2024-01-07T06:28:02;17.43;;;11.23;;
18407;SDS011;9330;52.210;21.174;2024-01-07T06:30:29;17.97;;;11.33;;
18407;SDS011;9330;52.210;21.174;2024-01-07T06:32:56;12.67;;;8.57;;
18407;SDS011;9330;52.210;21.174;2024-01-07T06:35:22;15.90;;;10.63;;
18407;SDS011;9330;52.210;21.174;2024-01-07T06:37:49;14.80;;;8.90;;
18407;SDS011;9330;52.210;21.174;2024-01-07T06:40:16;14.53;;;9.50;;
18407;SDS011;9330;52.210;21.174;2024-01-07T06:42:45;13.27;;;8.43;;
18407;SDS011;9330;52.210;21.174;2024-01-07T06:45:13;14.73;;;10.13;;
18407;SDS011;9330;52.210;21.174;2024-01-07T06:47:40;15.60;;;10.37;;
18407;SDS011;9330;52.210;21.174;2024-01-07T06:50:08;15.30;;;9.30;;
18407;SDS011;9330;52.210;21.174;2024-01-07T06:52:35;15.73;;;10.23;;
18407;SDS011;9330;52.210;21.174;2024-01-07T06:55:02;15.17;;;8.20;;
18407;SDS011;9330;52.210;21.174;2024-01-07T06:57:29;13.13;;;8.80;;
18407;SDS011;9330;52.210;21.174;2024-01-07T06:59:57;15.00;;;9.57;;
18407;SDS011;9330;52.210;21.174;2024-01-07T07:02:24;13.13;;;8.37;;
18407;SDS011;9330;52.210;21.174;2024-01-07T07:04:51;13.03;;;8.53;;
18407;SDS011;9330;52.210;21.174;2024-01-07T07:07:18;13.73;;;9.60;;
18407;SDS011;9330;52.210;21.174;2024-01-07T07:09:45;15.17;;;10.17;;
18407;SDS011;9330;52.210;21.174;2024-01-07T07:12:11;17.83;;;10.20;;
18407;SDS011;9330;52.210;21.174;2024-01-07T07:14:38;16.70;;;10.73;;
18407;SDS011;9330;52.210;21.174;2024-01-07T07:17:09;13.03;;;7.93;;
18407;SDS011;9330;52.210;21.174;2024-01-07T07:19:36;12.47;;;8.60;;
18407;SDS011;9330;52.210;21.174;2024-01-07T07:22:03;13.23;;;8.30;;
18407;SDS011;9330;52.210;21.174;2024-01-07T07:24:30;15.40;;;9.53;;
18407;SDS011;9330;52.210;21.174;2024-01-07T07:26:57;13.67;;;9.03;;
18407;SDS011;9330;52.210;21.174;2024-01-07T07:29:24;17.50;;;11.13;;
18407;SDS011;9330;52.210;21.174;2024-01-07T07:31:51;14.47;;;9.00;;
18407;SDS011;9330;52.210;21.174;2024-01-07T07:34:19;15.57;;;10.40;;
18407;SDS011;9330;52.210;21.174;2024-01-07T07:36:45;12.50;;;8.37;;
18407;SDS011;9330;52.210;21.174;2024-01-07T07:39:12;13.13;;;8.47;;
18407;SDS011;9330;52.210;21.174;2024-01-07T07:41:39;11.60;;;8.07;;
18407;SDS011;9330;52.210;21.174;2024-01-07T07:44:06;14.60;;;8.30;;
18407;SDS011;9330;52.210;21.174;2024-01-07T07:46:33;14.20;;;9.70;;
18407;SDS011;9330;52.210;21.174;2024-01-07T07:49:00;11.23;;;8.43;;
18407;SDS011;9330;52.210;21.174;2024-01-07T07:51:28;11.87;;;8.30;;
18407;SDS011;9330;52.210;21.174;2024-01-07T07:53:55;12.03;;;8.53;;
18407;SDS011;9330;52.210;21.174;2024-01-07T07:56:22;13.70;;;9.43;;
18407;SDS011;9330;52.210;21.174;2024-01-07T07:58:49;15.00;;;9.50;;
18407;SDS011;9330;52.210;21.174;2024-01-07T08:01:17;12.63;;;8.83;;
18407;SDS011;9330;52.210;21.174;2024-01-07T08:03:44;14.47;;;8.83;;
18407;SDS011;9330;52.210;21.174;2024-01-07T08:06:11;11.33;;;8.23;;
18407;SDS011;9330;52.210;21.174;2024-01-07T08:08:39;14.20;;;8.70;;
18407;SDS011;9330;52.210;21.174;2024-01-07T08:11:06;15.27;;;8.67;;
18407;SDS011;9330;52.210;21.174;2024-01-07T08:13:34;13.67;;;8.47;;
18407;SDS011;9330;52.210;21.174;2024-01-07T08:16:02;12.60;;;8.57;;
18407;SDS011;9330;52.210;21.174;2024-01-07T08:18:30;12.77;;;8.70;;
18407;SDS011;9330;52.210;21.174;2024-01-07T08:20:57;11.37;;;8.10;;
18407;SDS011;9330;52.210;21.174;2024-01-07T08:23:24;11.87;;;7.97;;
18407;SDS011;9330;52.210;21.174;2024-01-07T08:25:52;11.37;;;8.13;;
18407;SDS011;9330;52.210;21.174;2024-01-07T08:28:19;13.20;;;8.37;;
18407;SDS011;9330;52.210;21.174;2024-01-07T08:30:46;14.17;;;9.27;;
18407;SDS011;9330;52.210;21.174;2024-01-07T08:33:14;15.70;;;9.67;;
18407;SDS011;9330;52.210;21.174;2024-01-07T08:35:41;14.57;;;9.20;;
18407;SDS011;9330;52.210;21.174;2024-01-07T08:38:08;10.87;;;7.70;;
18407;SDS011;9330;52.210;21.174;2024-01-07T08:40:35;13.83;;;8.60;;
18407;SDS011;9330;52.210;21.174;2024-01-07T08:43:03;14.70;;;8.90;;
18407;SDS011;9330;52.210;21.174;2024-01-07T08:45:30;15.43;;;8.67;;
18407;SDS011;9330;52.210;21.174;2024-01-07T08:47:57;12.77;;;8.73;;
18407;SDS011;9330;52.210;21.174;2024-01-07T08:50:24;14.13;;;8.53;;
18407;SDS011;9330;52.210;21.174;2024-01-07T08:52:51;13.67;;;8.67;;
18407;SDS011;9330;52.210;21.174;2024-01-07T08:55:17;13.17;;;8.60;;
18407;SDS011;9330;52.210;21.174;2024-01-07T08:57:44;14.13;;;8.50;;
18407;SDS011;9330;52.210;21.174;2024-01-07T09:00:16;13.20;;;8.13;;
18407;SDS011;9330;52.210;21.174;2024-01-07T09:02:43;14.17;;;8.50;;
18407;SDS011;9330;52.210;21.174;2024-01-07T09:05:10;14.67;;;9.17;;
18407;SDS011;9330;52.210;21.174;2024-01-07T09:07:38;12.00;;;8.33;;
18407;SDS011;9330;52.210;21.174;2024-01-07T09:10:06;14.10;;;8.27;;
18407;SDS011;9330;52.210;21.174;2024-01-07T09:12:35;12.47;;;8.50;;
18407;SDS011;9330;52.210;21.174;2024-01-07T09:15:03;14.03;;;8.60;;
18407;SDS011;9330;52.210;21.174;2024-01-07T09:17:34;12.17;;;8.70;;
18407;SDS011;9330;52.210;21.174;2024-01-07T09:20:01;13.93;;;8.80;;
18407;SDS011;9330;52.210;21.174;2024-01-07T09:22:30;11.87;;;8.23;;
18407;SDS011;9330;52.210;21.174;2024-01-07T09:24:57;12.80;;;8.53;;
18407;SDS011;9330;52.210;21.174;2024-01-07T09:27:24;11.90;;;7.93;;
18407;SDS011;9330;52.210;21.174;2024-01-07T09:29:51;11.50;;;7.47;;
18407;SDS011;9330;52.210;21.174;2024-01-07T09:32:18;9.13;;;6.53;;
18407;SDS011;9330;52.210;21.174;2024-01-07T09:34:46;8.93;;;5.97;;
18407;SDS011;9330;52.210;21.174;2024-01-07T09:37:13;7.53;;;5.63;;
18407;SDS011;9330;52.210;21.174;2024-01-07T09:39:40;7.47;;;5.60;;
18407;SDS011;9330;52.210;21.174;2024-01-07T09:42:07;9.70;;;5.73;;
18407;SDS011;9330;52.210;21.174;2024-01-07T09:44:37;8.13;;;4.80;;
18407;SDS011;9330;52.210;21.174;2024-01-07T09:47:04;8.63;;;5.40;;
18407;SDS011;9330;52.210;21.174;2024-01-07T09:49:33;7.17;;;4.67;;
18407;SDS011;9330;52.210;21.174;2024-01-07T09:52:01;6.47;;;4.90;;
18407;SDS011;9330;52.210;21.174;2024-01-07T09:54:30;8.70;;;5.47;;
18407;SDS011;9330;52.210;21.174;2024-01-07T09:57:00;7.80;;;5.20;;
18407;SDS011;9330;52.210;21.174;2024-01-07T09:59:27;7.20;;;4.90;;
18407;SDS011;9330;52.210;21.174;2024-01-07T10:01:55;8.40;;;5.50;;
18407;SDS011;9330;52.210;21.174;2024-01-07T10:04:22;6.90;;;4.72;;
18407;SDS011;9330;52.210;21.174;2024-01-07T10:06:49;7.57;;;4.80;;
18407;SDS011;9330;52.210;21.174;2024-01-07T10:09:19;6.97;;;5.17;;
18407;SDS011;9330;52.210;21.174;2024-01-07T10:11:48;6.83;;;4.90;;
18407;SDS011;9330;52.210;21.174;2024-01-07T10:14:16;7.53;;;5.13;;
18407;SDS011;9330;52.210;21.174;2024-01-07T10:16:43;8.07;;;5.27;;
18407;SDS011;9330;52.210;21.174;2024-01-07T10:19:11;7.53;;;5.20;;
18407;SDS011;9330;52.210;21.174;2024-01-07T10:21:37;7.83;;;5.57;;
18407;SDS011;9330;52.210;21.174;2024-01-07T10:24:07;7.20;;;5.13;;
18407;SDS011;9330;52.210;21.174;2024-01-07T10:26:37;7.83;;;5.30;;
18407;SDS011;9330;52.210;21.174;2024-01-07T10:29:05;7.53;;;5.50;;
18407;SDS011;9330;52.210;21.174;2024-01-07T10:31:33;8.17;;;5.50;;
18407;SDS011;9330;52.210;21.174;2024-01-07T10:33:59;8.47;;;5.20;;
18407;SDS011;9330;52.210;21.174;2024-01-07T10:36:26;7.03;;;5.40;;
18407;SDS011;9330;52.210;21.174;2024-01-07T10:38:54;7.90;;;5.77;;
18407;SDS011;9330;52.210;21.174;2024-01-07T10:41:21;8.70;;;6.03;;
18407;SDS011;9330;52.210;21.174;2024-01-07T10:43:49;9.83;;;6.10;;
18407;SDS011;9330;52.210;21.174;2024-01-07T10:46:16;10.00;;;6.43;;
18407;SDS011;9330;52.210;21.174;2024-01-07T10:48:46;8.83;;;6.43;;
18407;SDS011;9330;52.210;21.174;2024-01-07T10:51:19;8.57;;;5.93;;
18407;SDS011;9330;52.210;21.174;2024-01-07T10:53:49;8.40;;;6.13;;
18407;SDS011;9330;52.210;21.174;2024-01-07T10:56:19;9.77;;;5.67;;
18407;SDS011;9330;52.210;21.174;2024-01-07T10:58:51;10.00;;;6.07;;
18407;SDS011;9330;52.210;21.174;2024-01-07T11:01:19;7.93;;;5.33;;
18407;SDS011;9330;52.210;21.174;2024-01-07T11:03:48;11.20;;;7.30;;
18407;SDS011;9330;52.210;21.174;2024-01-07T11:06:24;12.33;;;7.57;;
18407;SDS011;9330;52.210;21.174;2024-01-07T11:08:55;10.20;;;7.17;;
18407;SDS011;9330;52.210;21.174;2024-01-07T11:11:31;9.93;;;5.50;;
18407;SDS011;9330;52.210;21.174;2024-01-07T11:14:04;12.07;;;7.37;;
18407;SDS011;9330;52.210;21.174;2024-01-07T11:16:40;9.53;;;6.37;;
18407;SDS011;9330;52.210;21.174;2024-01-07T11:19:08;10.67;;;6.00;;
18407;SDS011;9330;52.210;21.174;2024-01-07T11:21:35;8.00;;;6.23;;
18407;SDS011;9330;52.210;21.174;2024-01-07T11:24:02;8.27;;;6.20;;
18407;SDS011;9330;52.210;21.174;2024-01-07T11:26:29;8.20;;;6.17;;
18407;SDS011;9330;52.210;21.174;2024-01-07T11:28:56;8.83;;;6.43;;
18407;SDS011;9330;52.210;21.174;2024-01-07T11:37:10;8.17;;;6.13;;
18407;SDS011;9330;52.210;21.174;2024-01-07T11:39:37;9.83;;;6.27;;
18407;SDS011;9330;52.210;21.174;2024-01-07T11:42:04;10.07;;;6.80;;
18407;SDS011;9330;52.210;21.174;2024-01-07T11:44:33;9.63;;;6.63;;
18407;SDS011;9330;52.210;21.174;2024-01-07T11:47:03;10.00;;;7.03;;
18407;SDS011;9330;52.210;21.174;2024-01-07T11:49:31;11.83;;;7.80;;
18407;SDS011;9330;52.210;21.174;2024-01-07T11:51:58;11.70;;;6.80;;
18407;SDS011;9330;52.210;21.174;2024-01-07T11:54:26;10.27;;;7.37;;
18407;SDS011;9330;52.210;21.174;2024-01-07T11:56:54;9.93;;;7.00;;
18407;SDS011;9330;52.210;21.174;2024-01-07T11:59:21;10.80;;;7.30;;
18407;SDS011;9330;52.210;21.174;2024-01-07T12:01:48;9.40;;;6.77;;
18407;SDS011;9330;52.210;21.174;2024-01-07T12:04:16;9.90;;;6.97;;
18407;SDS011;9330;52.210;21.174;2024-01-07T12:06:43;11.87;;;7.20;;
18407;SDS011;9330;52.210;21.174;2024-01-07T12:09:11;9.60;;;7.13;;
18407;SDS011;9330;52.210;21.174;2024-01-07T12:11:39;10.07;;;6.83;;
18407;SDS011;9330;52.210;21.174;2024-01-07T12:14:06;10.30;;;6.83;;
18407;SDS011;9330;52.210;21.174;2024-01-07T12:16:35;9.50;;;6.73;;
18407;SDS011;9330;52.210;21.174;2024-01-07T12:19:02;8.77;;;6.83;;
18407;SDS011;9330;52.210;21.174;2024-01-07T12:21:30;10.17;;;6.73;;
18407;SDS011;9330;52.210;21.174;2024-01-07T12:23:57;10.93;;;6.13;;
18407;SDS011;9330;52.210;21.174;2024-01-07T12:26:25;9.17;;;5.63;;
18407;SDS011;9330;52.210;21.174;2024-01-07T12:28:53;8.53;;;6.53;;
18407;SDS011;9330;52.210;21.174;2024-01-07T12:31:22;8.23;;;6.38;;
18407;SDS011;9330;52.210;21.174;2024-01-07T12:33:49;10.00;;;7.30;;
18407;SDS011;9330;52.210;21.174;2024-01-07T12:36:19;11.03;;;7.00;;
18407;SDS011;9330;52.210;21.174;2024-01-07T12:38:48;10.40;;;6.40;;
18407;SDS011;9330;52.210;21.174;2024-01-07T12:41:16;11.27;;;7.20;;
18407;SDS011;9330;52.210;21.174;2024-01-07T12:43:44;10.07;;;6.47;;
18407;SDS011;9330;52.210;21.174;2024-01-07T12:46:10;11.70;;;7.37;;
18407;SDS011;9330;52.210;21.174;2024-01-07T12:48:37;10.50;;;7.10;;
18407;SDS011;9330;52.210;21.174;2024-01-07T12:51:05;8.87;;;6.47;;
18407;SDS011;9330;52.210;21.174;2024-01-07T12:53:32;11.40;;;7.13;;
18407;SDS011;9330;52.210;21.174;2024-01-07T12:56:00;9.90;;;7.07;;
18407;SDS011;9330;52.210;21.174;2024-01-07T12:58:27;9.70;;;6.57;;
18407;SDS011;9330;52.210;21.174;2024-01-07T13:00:54;10.50;;;6.63;;
18407;SDS011;9330;52.210;21.174;2024-01-07T13:03:20;8.73;;;6.50;;
18407;SDS011;9330;52.210;21.174;2024-01-07T13:05:48;9.67;;;6.70;;
18407;SDS011;9330;52.210;21.174;2024-01-07T13:08:15;9.13;;;6.07;;
18407;SDS011;9330;52.210;21.174;2024-01-07T13:10:43;10.87;;;6.57;;
18407;SDS011;9330;52.210;21.174;2024-01-07T13:13:12;8.35;;;6.40;;
18407;SDS011;9330;52.210;21.174;2024-01-07T13:15:38;11.80;;;6.37;;
18407;SDS011;9330;52.210;21.174;2024-01-07T13:18:06;8.87;;;5.93;;
18407;SDS011;9330;52.210;21.174;2024-01-07T13:20:33;10.07;;;6.23;;
18407;SDS011;9330;52.210;21.174;2024-01-07T13:23:00;8.60;;;5.93;;
18407;SDS011;9330;52.210;21.174;2024-01-07T13:25:29;10.67;;;6.03;;
18407;SDS011;9330;52.210;21.174;2024-01-07T13:27:56;9.13;;;5.90;;
18407;SDS011;9330;52.210;21.174;2024-01-07T13:30:24;8.80;;;5.83;;
18407;SDS011;9330;52.210;21.174;2024-01-07T13:32:51;30.43;;;22.23;;
18407;SDS011;9330;52.210;21.174;2024-01-07T13:35:21;10.73;;;7.47;;
18407;SDS011;9330;52.210;21.174;2024-01-07T13:37:48;15.77;;;11.53;;
18407;SDS011;9330;52.210;21.174;2024-01-07T13:40:17;15.60;;;11.40;;
18407;SDS011;9330;52.210;21.174;2024-01-07T13:42:44;13.00;;;9.70;;
18407;SDS011;9330;52.210;21.174;2024-01-07T13:45:15;11.13;;;8.37;;
18407;SDS011;9330;52.210;21.174;2024-01-07T13:47:46;12.07;;;8.87;;
18407;SDS011;9330;52.210;21.174;2024-01-07T13:50:13;10.17;;;7.37;;
18407;SDS011;9330;52.210;21.174;2024-01-07T13:52:40;10.20;;;6.20;;
18407;SDS011;9330;52.210;21.174;2024-01-07T13:55:07;12.97;;;8.33;;
18407;SDS011;9330;52.210;21.174;2024-01-07T13:57:35;11.80;;;8.03;;
18407;SDS011;9330;52.210;21.174;2024-01-07T14:00:02;12.50;;;9.23;;
18407;SDS011;9330;52.210;21.174;2024-01-07T14:02:34;11.07;;;7.70;;
18407;SDS011;9330;52.210;21.174;2024-01-07T14:05:04;12.80;;;7.53;;
18407;SDS011;9330;52.210;21.174;2024-01-07T14:07:33;11.97;;;8.20;;
18407;SDS011;9330;52.210;21.174;2024-01-07T14:10:00;12.60;;;8.00;;
18407;SDS011;9330;52.210;21.174;2024-01-07T14:12:28;13.37;;;9.10;;
18407;SDS011;9330;52.210;21.174;2024-01-07T14:14:55;11.40;;;7.63;;
18407;SDS011;9330;52.210;21.174;2024-01-07T14:17:22;14.17;;;8.90;;
18407;SDS011;9330;52.210;21.174;2024-01-07T14:19:48;14.43;;;8.67;;
18407;SDS011;9330;52.210;21.174;2024-01-07T14:22:18;13.17;;;8.20;;
18407;SDS011;9330;52.210;21.174;2024-01-07T14:24:45;13.03;;;8.13;;
18407;SDS011;9330;52.210;21.174;2024-01-07T14:27:13;13.93;;;8.77;;
18407;SDS011;9330;52.210;21.174;2024-01-07T14:29:40;12.70;;;9.07;;
18407;SDS011;9330;52.210;21.174;2024-01-07T14:32:07;14.80;;;8.77;;
18407;SDS011;9330;52.210;21.174;2024-01-07T14:34:34;15.43;;;9.33;;
18407;SDS011;9330;52.210;21.174;2024-01-07T14:37:04;16.37;;;10.37;;
18407;SDS011;9330;52.210;21.174;2024-01-07T14:39:32;16.00;;;10.53;;
18407;SDS011;9330;52.210;21.174;2024-01-07T14:41:59;16.43;;;11.07;;
18407;SDS011;9330;52.210;21.174;2024-01-07T14:44:26;16.57;;;10.07;;